Time;durP1;ratioP1;P1;durP2;ratioP2;P2;SDS_P1;SDS_P2;PMS_P1;PMS_P2;Temp;Humidity;BMP_temperature;BMP_pressure;BME280_temperature;BME280_humidity;BME280_pressure;Samples;Min_cycle;Max_cycle;Signal;HPM_P1;HPM_P2
2022/10/08 00:01:04;;;;;;;5.43;2.28;;;7.60;99.90;;;;;;4989625;28;20676;-63
2022/10/08 00:03:35;;;;;;;6.15;2.20;;;7.60;99.90;;;;;;4988728;28;20551;-64
2022/10/08 00:06:07;;;;;;;14.63;3.10;;;7.60;99.90;;;;;;4987446;28;20473;-67
2022/10/08 00:08:36;;;;;;;20.13;3.28;;;7.60;99.90;;;;;;4987313;28;20034;-65
2022/10/08 00:11:12;;;;;;;15.32;3.47;;;7.60;99.90;;;;;;4989922;28;20604;-64
2022/10/08 00:13:39;;;;;;;10.23;3.00;;;7.50;99.90;;;;;;4988947;28;20026;-65
2022/10/08 00:16:22;;;;;;;7.32;2.55;;;7.50;99.90;;;;;;4988866;28;20038;-64
2022/10/08 00:18:51;;;;;;;16.52;4.15;;;7.50;99.90;;;;;;4986317;28;20034;-64
2022/10/08 00:21:23;;;;;;;13.30;2.67;;;7.40;99.90;;;;;;4988257;28;20037;-63
2022/10/08 00:23:50;;;;;;;13.32;2.88;;;7.50;99.90;;;;;;4989511;28;20026;-66
2022/10/08 00:26:19;;;;;;;10.55;2.83;;;7.40;99.90;;;;;;4988454;28;20038;-65
2022/10/08 00:28:46;;;;;;;9.15;2.85;;;7.40;99.90;;;;;;4990912;28;20022;-66
2022/10/08 00:31:26;;;;;;;8.65;2.97;;;7.50;99.90;;;;;;4989162;28;20054;-65
2022/10/08 00:33:55;;;;;;;9.10;2.83;;;7.40;99.90;;;;;;4983479;28;20030;-65
2022/10/08 00:36:22;;;;;;;8.60;2.15;;;7.40;99.90;;;;;;4985000;28;20538;-64
2022/10/08 00:38:48;;;;;;;9.23;2.42;;;7.40;99.90;;;;;;4989644;28;20105;-65
2022/10/08 00:41:21;;;;;;;5.45;2.88;;;7.50;99.90;;;;;;4990672;28;20029;-64
2022/10/08 00:43:50;;;;;;;6.82;2.67;;;7.40;99.90;;;;;;4988146;28;20121;-65
2022/10/08 00:46:25;;;;;;;14.68;2.30;;;7.50;99.90;;;;;;4989156;28;20018;-65
2022/10/08 00:49:11;;;;;;;11.85;2.83;;;7.50;99.90;;;;;;4985715;28;20077;-64
2022/10/08 00:51:43;;;;;;;13.18;3.13;;;7.40;99.90;;;;;;4988378;28;20034;-68
2022/10/08 00:54:10;;;;;;;8.32;2.92;;;7.40;99.90;;;;;;4987888;28;20559;-65
2022/10/08 00:56:37;;;;;;;9.32;2.72;;;7.40;99.90;;;;;;4989567;28;20054;-65
2022/10/08 00:59:03;;;;;;;12.38;2.58;;;7.40;99.90;;;;;;4986875;28;20034;-63
2022/10/08 01:01:30;;;;;;;7.68;2.33;;;7.40;99.90;;;;;;4988116;28;20481;-65
2022/10/08 01:03:59;;;;;;;9.80;2.33;;;7.40;99.90;;;;;;4986986;28;20168;-64
2022/10/08 01:06:31;;;;;;;10.27;2.17;;;7.40;99.90;;;;;;4988934;28;20122;-66
2022/10/08 01:09:08;;;;;;;10.13;2.55;;;7.40;99.90;;;;;;4987223;28;20926;-65
2022/10/08 01:11:52;;;;;;;11.57;2.47;;;7.40;99.90;;;;;;4986743;28;20054;-64
2022/10/08 01:14:19;;;;;;;8.05;1.98;;;7.40;99.90;;;;;;4982934;28;20042;-63
2022/10/08 01:16:54;;;;;;;9.75;2.28;;;7.40;99.90;;;;;;4985808;28;20104;-66
2022/10/08 01:19:45;;;;;;;10.32;2.35;;;7.40;99.90;;;;;;4988744;28;20053;-64
2022/10/08 01:22:29;;;;;;;12.93;2.33;;;7.30;99.90;;;;;;4984790;28;20113;-65
2022/10/08 01:25:34;;;;;;;10.38;2.13;;;7.30;99.90;;;;;;4989428;28;20142;-65
2022/10/08 01:28:15;;;;;;;4.10;1.65;;;7.30;99.90;;;;;;4985353;28;20064;-64
2022/10/08 01:31:00;;;;;;;9.43;2.58;;;7.30;99.90;;;;;;4982431;28;20034;-65
2022/10/08 01:33:35;;;;;;;8.68;1.98;;;7.30;99.90;;;;;;4989852;28;20540;-65
2022/10/08 01:36:04;;;;;;;7.40;2.10;;;7.30;99.90;;;;;;4989949;28;20027;-64
2022/10/08 01:38:32;;;;;;;5.55;2.28;;;7.30;99.90;;;;;;4989510;28;20033;-65
2022/10/08 01:41:03;;;;;;;7.95;2.15;;;7.20;99.90;;;;;;4989285;28;20889;-66
2022/10/08 01:43:33;;;;;;;4.85;1.88;;;7.20;99.90;;;;;;4989011;28;20034;-65
2022/10/08 01:46:10;;;;;;;7.00;2.03;;;7.20;99.90;;;;;;4988717;28;20113;-66
2022/10/08 01:48:39;;;;;;;12.10;2.45;;;7.20;99.90;;;;;;4989964;28;20053;-65
2022/10/08 01:51:19;;;;;;;9.32;2.50;;;7.20;99.90;;;;;;4989973;28;20022;-64
2022/10/08 01:53:49;;;;;;;17.90;2.47;;;7.20;99.90;;;;;;4989012;28;20528;-65
2022/10/08 01:56:21;;;;;;;7.80;2.17;;;7.10;99.90;;;;;;5006856;28;20496;-64
2022/10/08 01:59:05;;;;;;;12.23;2.38;;;7.10;99.90;;;;;;4991010;28;20445;-65
2022/10/08 02:01:31;;;;;;;7.10;2.35;;;7.10;99.90;;;;;;4991911;28;20441;-65
2022/10/08 02:06:47;;;;;;;14.48;2.55;;;7.10;99.90;;;;;;4993381;28;20030;-64
2022/10/08 02:09:13;;;;;;;5.82;1.75;;;7.00;99.90;;;;;;4992837;28;20030;-65
2022/10/08 02:11:39;;;;;;;10.15;2.28;;;7.00;99.90;;;;;;4992195;28;20057;-65
2022/10/08 02:14:05;;;;;;;7.78;2.55;;;7.00;99.90;;;;;;4993058;28;20559;-65
2022/10/08 02:16:35;;;;;;;9.35;2.30;;;7.00;99.90;;;;;;4990765;28;20551;-65
2022/10/08 02:19:09;;;;;;;8.05;2.20;;;7.00;99.90;;;;;;4993102;28;20094;-64
2022/10/08 02:21:38;;;;;;;7.82;3.50;;;6.90;99.90;;;;;;4993142;28;20318;-65
2022/10/08 02:24:25;;;;;;;7.15;2.35;;;6.90;99.90;;;;;;4993336;28;20635;-64
2022/10/08 02:26:54;;;;;;;7.88;2.25;;;6.90;99.90;;;;;;4993054;28;20021;-64
2022/10/08 02:29:31;;;;;;;13.15;2.08;;;6.80;99.90;;;;;;5000898;22;20051;-69
2022/10/08 02:32:20;;;;;;;5.22;2.17;;;6.80;99.90;;;;;;4970639;28;20030;-68
2022/10/08 02:34:59;;;;;;;5.45;2.15;;;6.80;99.90;;;;;;4973269;28;20030;-69
2022/10/08 02:37:53;;;;;;;13.18;2.67;;;6.70;99.90;;;;;;4972594;28;20476;-69
2022/10/08 02:40:20;;;;;;;7.28;2.53;;;6.70;99.90;;;;;;4985190;28;20076;-68
2022/10/08 02:42:51;;;;;;;8.30;2.22;;;6.70;99.90;;;;;;4992497;28;20132;-67
2022/10/08 02:45:22;;;;;;;8.38;2.85;;;6.60;99.90;;;;;;4975399;28;20057;-68
2022/10/08 02:47:54;;;;;;;4.15;1.90;;;6.60;99.90;;;;;;4986100;28;20030;-67
2022/10/08 02:50:24;;;;;;;9.27;2.15;;;6.60;99.90;;;;;;4992631;28;20022;-68
2022/10/08 02:52:51;;;;;;;8.63;2.50;;;6.60;99.90;;;;;;4992557;28;20109;-69
2022/10/08 02:55:43;;;;;;;8.88;2.42;;;6.60;99.90;;;;;;4993388;28;20014;-68
2022/10/08 02:58:10;;;;;;;14.90;4.45;;;6.60;99.90;;;;;;4992999;28;20029;-68
2022/10/08 03:00:41;;;;;;;6.00;2.22;;;6.60;99.90;;;;;;4990612;28;20548;-68
2022/10/08 03:03:13;;;;;;;11.38;2.80;;;6.60;99.90;;;;;;4992777;28;20026;-68
2022/10/08 03:05:41;;;;;;;14.95;2.92;;;6.60;99.90;;;;;;4989224;28;20022;-68
2022/10/08 03:08:08;;;;;;;15.68;3.15;;;6.60;99.90;;;;;;4990303;28;20026;-68
2022/10/08 03:10:37;;;;;;;9.55;2.70;;;6.60;99.90;;;;;;4989847;28;20038;-69
2022/10/08 03:13:03;;;;;;;17.65;3.35;;;6.60;99.90;;;;;;4991460;28;20030;-68
2022/10/08 03:15:32;;;;;;;10.63;3.10;;;6.60;99.90;;;;;;4974018;28;20085;-69
2022/10/08 03:17:59;;;;;;;18.17;3.28;;;6.60;99.90;;;;;;4986851;28;20022;-68
2022/10/08 03:20:25;;;;;;;14.00;2.72;;;6.60;99.90;;;;;;4991279;28;20077;-71
2022/10/08 03:22:54;;;;;;;9.43;2.97;;;6.60;99.90;;;;;;4992057;28;20023;-70
2022/10/08 03:25:20;;;;;;;13.07;3.05;;;6.60;99.90;;;;;;4990004;28;20035;-66
2022/10/08 03:27:48;;;;;;;8.13;2.42;;;6.50;99.90;;;;;;4981000;28;20033;-68
2022/10/08 03:30:14;;;;;;;7.47;2.92;;;6.60;99.90;;;;;;4990835;28;20043;-69
2022/10/08 03:32:39;;;;;;;8.00;2.78;;;6.50;99.90;;;;;;4991465;28;20530;-68
2022/10/08 03:35:05;;;;;;;8.25;3.88;;;6.60;99.90;;;;;;4991821;28;20030;-68
2022/10/08 03:37:30;;;;;;;11.10;3.55;;;6.60;99.90;;;;;;4991267;28;20531;-69
2022/10/08 03:39:56;;;;;;;9.32;2.72;;;6.60;99.90;;;;;;4990314;28;20447;-70
2022/10/08 03:42:21;;;;;;;9.45;3.65;;;6.60;99.90;;;;;;4991515;28;20031;-68
2022/10/08 03:44:47;;;;;;;11.50;3.45;;;6.70;99.90;;;;;;4990471;28;20038;-68
2022/10/08 03:47:12;;;;;;;7.20;3.83;;;6.70;99.90;;;;;;4991033;28;20061;-67
2022/10/08 03:49:38;;;;;;;11.27;3.65;;;6.70;99.90;;;;;;4991888;28;20022;-68
2022/10/08 03:52:04;;;;;;;13.20;3.92;;;6.70;99.90;;;;;;4987245;28;20031;-69
2022/10/08 03:54:30;;;;;;;15.30;3.10;;;6.80;99.90;;;;;;4990961;28;20027;-68
2022/10/08 03:56:55;;;;;;;13.48;3.85;;;6.90;99.90;;;;;;4991288;28;20038;-68
2022/10/08 03:59:21;;;;;;;8.32;3.03;;;7.00;99.90;;;;;;4991591;28;20204;-70
2022/10/08 04:01:46;;;;;;;6.45;2.60;;;7.10;99.90;;;;;;4975660;28;20033;-69
2022/10/08 04:04:12;;;;;;;11.25;3.05;;;7.20;99.90;;;;;;4991328;28;20026;-68
2022/10/08 04:06:38;;;;;;;10.38;2.55;;;7.40;99.90;;;;;;4987448;28;20492;-69
2022/10/08 04:09:03;;;;;;;7.60;2.53;;;7.40;99.90;;;;;;4989238;28;20038;-69
2022/10/08 04:11:29;;;;;;;12.35;3.50;;;7.60;99.90;;;;;;4989910;28;20125;-69
2022/10/08 04:13:54;;;;;;;12.63;2.80;;;7.60;99.90;;;;;;4991521;28;20030;-68
2022/10/08 04:16:20;;;;;;;6.35;2.03;;;7.70;99.90;;;;;;4990378;28;20034;-72
2022/10/08 04:18:46;;;;;;;6.93;2.50;;;7.80;99.90;;;;;;4989736;28;20026;-67
2022/10/08 04:21:14;;;;;;;6.45;1.90;;;7.80;99.90;;;;;;4990751;28;20065;-68
2022/10/08 04:23:41;;;;;;;6.35;1.92;;;7.90;99.90;;;;;;4989197;28;20485;-68
2022/10/08 04:26:08;;;;;;;7.95;2.30;;;8.00;99.90;;;;;;4990274;28;20068;-68
2022/10/08 04:28:39;;;;;;;9.52;2.38;;;8.00;99.90;;;;;;4989842;28;20371;-68
2022/10/08 04:31:17;;;;;;;5.35;2.00;;;8.10;99.90;;;;;;4989712;28;20042;-67
2022/10/08 04:33:44;;;;;;;7.68;2.63;;;8.20;99.90;;;;;;4990353;28;20022;-69
2022/10/08 04:36:12;;;;;;;6.63;2.22;;;8.20;99.90;;;;;;4989195;28;20026;-67
2022/10/08 04:38:38;;;;;;;9.10;2.13;;;8.30;99.90;;;;;;4990437;28;20047;-69
2022/10/08 04:41:09;;;;;;;6.72;3.05;;;8.30;99.90;;;;;;4989962;28;20065;-70
2022/10/08 04:43:36;;;;;;;6.85;1.98;;;8.40;99.90;;;;;;4989771;28;20018;-69
2022/10/08 04:46:03;;;;;;;8.27;2.50;;;8.50;99.90;;;;;;4985794;28;20105;-70
2022/10/08 04:48:28;;;;;;;7.70;2.13;;;8.50;99.90;;;;;;4990859;28;20026;-69
2022/10/08 04:50:59;;;;;;;10.75;1.90;;;8.60;99.90;;;;;;4990217;28;20034;-69
2022/10/08 04:53:25;;;;;;;4.93;2.10;;;8.60;99.90;;;;;;4990454;28;20034;-67
2022/10/08 04:55:52;;;;;;;8.27;1.98;;;8.70;99.90;;;;;;4991459;28;20022;-69
2022/10/08 04:58:18;;;;;;;7.32;1.42;;;8.70;99.90;;;;;;4991001;28;20488;-72
2022/10/08 05:00:43;;;;;;;8.60;2.05;;;8.70;99.90;;;;;;4989842;28;20186;-68
2022/10/08 05:03:09;;;;;;;8.13;2.42;;;8.80;99.90;;;;;;4990559;28;20390;-69
2022/10/08 05:05:42;;;;;;;5.13;1.90;;;8.80;99.90;;;;;;4991201;28;20029;-68
2022/10/08 05:08:08;;;;;;;6.65;2.85;;;8.90;99.90;;;;;;4989814;28;20022;-69
2022/10/08 05:10:34;;;;;;;9.00;1.75;;;8.90;99.90;;;;;;4990411;28;20038;-69
2022/10/08 05:13:00;;;;;;;5.03;1.58;;;8.90;99.90;;;;;;4989933;28;20504;-68
2022/10/08 05:15:26;;;;;;;5.28;1.90;;;9.00;99.90;;;;;;4988798;28;20152;-70
2022/10/08 05:17:52;;;;;;;8.77;1.60;;;9.00;99.90;;;;;;4990966;28;20513;-69
2022/10/08 05:20:18;;;;;;;10.30;1.88;;;9.00;99.90;;;;;;4988042;28;20150;-67
2022/10/08 05:22:43;;;;;;;8.57;1.77;;;9.10;99.90;;;;;;4988425;28;20089;-68
2022/10/08 05:25:09;;;;;;;6.93;2.25;;;9.10;99.90;;;;;;4990312;28;20132;-68
2022/10/08 05:27:34;;;;;;;6.82;2.13;;;9.10;99.90;;;;;;4988826;28;20026;-69
2022/10/08 05:30:01;;;;;;;6.03;1.95;;;9.10;99.90;;;;;;4992475;28;20041;-68
2022/10/08 05:32:27;;;;;;;6.45;1.73;;;9.10;99.90;;;;;;4993004;28;20109;-70
2022/10/08 05:34:52;;;;;;;8.93;3.45;;;9.20;99.90;;;;;;4993952;28;20081;-67
2022/10/08 05:37:18;;;;;;;7.65;1.92;;;9.20;99.90;;;;;;4993784;28;20026;-67
2022/10/08 05:39:44;;;;;;;5.55;1.67;;;9.20;99.90;;;;;;4993533;28;20030;-67
2022/10/08 05:42:10;;;;;;;11.57;1.75;;;9.20;99.90;;;;;;4991121;28;20063;-68
2022/10/08 05:44:36;;;;;;;4.85;1.70;;;9.20;99.90;;;;;;4992585;28;20045;-69
2022/10/08 05:47:02;;;;;;;4.25;1.80;;;9.30;99.90;;;;;;4993006;28;20026;-68
2022/10/08 05:49:27;;;;;;;5.88;2.08;;;9.20;99.90;;;;;;4993635;28;20065;-67
2022/10/08 05:51:53;;;;;;;7.88;1.95;;;9.20;99.90;;;;;;4993029;28;20040;-68
2022/10/08 05:54:19;;;;;;;5.43;2.00;;;9.30;99.90;;;;;;4992782;28;20030;-67
2022/10/08 05:56:45;;;;;;;10.65;2.47;;;9.30;99.90;;;;;;4993587;28;20481;-68
2022/10/08 05:59:17;;;;;;;5.18;2.30;;;9.30;99.90;;;;;;4994182;28;20035;-69
2022/10/08 06:01:43;;;;;;;6.45;2.55;;;9.30;99.90;;;;;;4986181;28;20057;-69
2022/10/08 06:04:10;;;;;;;7.15;2.80;;;9.20;99.90;;;;;;4994117;28;20019;-69
2022/10/08 06:06:37;;;;;;;7.35;2.80;;;9.20;99.90;;;;;;4993457;28;20516;-68
2022/10/08 06:09:03;;;;;;;9.25;3.20;;;9.20;99.90;;;;;;4993379;28;20030;-69
2022/10/08 06:11:32;;;;;;;7.57;2.47;;;9.20;99.90;;;;;;4991936;28;20041;-69
2022/10/08 06:13:59;;;;;;;7.95;2.17;;;9.20;99.90;;;;;;4994134;28;20026;-71
2022/10/08 06:16:25;;;;;;;9.40;2.55;;;9.20;99.90;;;;;;4980221;28;20117;-68
2022/10/08 06:18:51;;;;;;;8.30;2.20;;;9.30;99.90;;;;;;4978447;28;20134;-68
2022/10/08 06:21:20;;;;;;;6.40;2.35;;;9.20;99.90;;;;;;4992338;28;20545;-69
2022/10/08 06:23:51;;;;;;;7.47;2.20;;;9.20;99.90;;;;;;4993946;28;20551;-67
2022/10/08 06:26:18;;;;;;;14.05;2.58;;;9.20;99.90;;;;;;4977914;28;20026;-69
2022/10/08 06:28:44;;;;;;;17.63;5.63;;;9.30;99.90;;;;;;4993286;28;20018;-69
2022/10/08 06:31:10;;;;;;;10.70;4.90;;;9.30;99.90;;;;;;4992712;28;20409;-70
2022/10/08 06:33:36;;;;;;;9.18;3.67;;;9.40;99.90;;;;;;4993261;28;20091;-68
2022/10/08 06:36:06;;;;;;;8.40;3.20;;;9.40;99.90;;;;;;4992128;28;20105;-69
2022/10/08 06:38:32;;;;;;;13.80;4.38;;;9.40;99.90;;;;;;4976107;28;20037;-69
2022/10/08 06:40:59;;;;;;;16.05;6.82;;;9.50;99.90;;;;;;4991073;28;20050;-68
2022/10/08 06:43:25;;;;;;;16.05;8.63;;;9.50;99.90;;;;;;4975718;28;20129;-69
2022/10/08 06:45:51;;;;;;;14.02;4.53;;;9.60;99.90;;;;;;4992468;28;20165;-70
2022/10/08 06:48:18;;;;;;;5.97;3.30;;;9.80;99.90;;;;;;4992097;28;20029;-68
2022/10/08 06:50:45;;;;;;;6.93;3.00;;;9.90;99.90;;;;;;4992327;28;20096;-69
2022/10/08 06:53:10;;;;;;;11.95;3.42;;;10.00;99.90;;;;;;4991768;28;20745;-68
2022/10/08 06:55:36;;;;;;;14.82;3.00;;;10.10;99.90;;;;;;4992587;28;20113;-70
2022/10/08 06:58:03;;;;;;;7.93;4.28;;;10.30;99.90;;;;;;4992178;28;20126;-69
2022/10/08 07:00:29;;;;;;;7.85;3.83;;;10.40;99.90;;;;;;4987970;28;20039;-70
2022/10/08 07:02:55;;;;;;;9.48;2.80;;;10.60;99.90;;;;;;4975491;28;20025;-71
2022/10/08 07:05:21;;;;;;;10.10;2.75;;;10.70;99.90;;;;;;4991045;28;20039;-68
2022/10/08 07:07:47;;;;;;;8.68;3.92;;;10.80;99.90;;;;;;4990251;28;20397;-72
2022/10/08 07:10:12;;;;;;;5.85;2.92;;;11.00;99.90;;;;;;4987956;28;20037;-69
2022/10/08 07:12:38;;;;;;;14.98;3.67;;;11.10;99.90;;;;;;4978713;28;20457;-69
2022/10/08 07:15:04;;;;;;;11.00;3.40;;;11.20;99.90;;;;;;4989942;28;20089;-68
2022/10/08 07:17:30;;;;;;;6.60;2.70;;;11.20;99.90;;;;;;4991388;28;20065;-67
2022/10/08 07:19:56;;;;;;;5.63;3.40;;;11.20;99.90;;;;;;4990664;28;20074;-70
2022/10/08 07:22:22;;;;;;;8.93;4.20;;;11.20;99.90;;;;;;4990920;28;20026;-70
2022/10/08 07:24:48;;;;;;;7.05;2.83;;;11.20;99.90;;;;;;4991331;28;20027;-70
2022/10/08 07:27:14;;;;;;;7.05;3.13;;;11.20;99.90;;;;;;4989765;28;20033;-68
2022/10/08 07:29:40;;;;;;;11.77;4.63;;;11.20;99.90;;;;;;4990524;28;20113;-69
2022/10/08 07:32:05;;;;;;;6.15;3.20;;;11.20;99.90;;;;;;4990437;28;20109;-68
2022/10/08 07:34:31;;;;;;;13.13;6.00;;;11.20;99.90;;;;;;4989841;28;20738;-68
2022/10/08 07:36:57;;;;;;;9.35;4.30;;;11.20;99.90;;;;;;4990765;28;20026;-69
2022/10/08 07:39:22;;;;;;;15.68;5.25;;;11.30;99.90;;;;;;4990672;28;20027;-70
2022/10/08 07:41:49;;;;;;;15.52;5.20;;;11.30;99.90;;;;;;4989550;28;20035;-68
2022/10/08 07:44:16;;;;;;;8.40;5.55;;;11.40;99.90;;;;;;4986866;28;20037;-68
2022/10/08 07:46:43;;;;;;;8.15;4.60;;;11.40;99.90;;;;;;4989788;28;20026;-69
2022/10/08 07:49:10;;;;;;;11.40;5.55;;;11.50;99.90;;;;;;4990311;28;20449;-69
2022/10/08 07:51:36;;;;;;;9.52;4.97;;;11.50;99.90;;;;;;4989698;28;20370;-69
2022/10/08 07:54:04;;;;;;;8.98;4.35;;;11.60;99.90;;;;;;4988805;28;20088;-70
2022/10/08 07:56:31;;;;;;;19.58;5.10;;;11.70;99.90;;;;;;4990318;28;20121;-68
2022/10/08 07:58:58;;;;;;;7.97;4.80;;;11.90;99.90;;;;;;4988563;28;20109;-69
2022/10/08 08:01:28;;;;;;;8.82;5.82;;;12.10;99.90;;;;;;4988841;28;20493;-69
2022/10/08 08:04:05;;;;;;;15.98;5.43;;;12.20;99.90;;;;;;4990137;28;20089;-69
2022/10/08 08:06:33;;;;;;;10.95;4.55;;;12.30;99.90;;;;;;4985078;28;20027;-68
2022/10/08 08:09:00;;;;;;;7.82;4.28;;;12.40;99.90;;;;;;4989876;28;20030;-68
2022/10/08 08:11:25;;;;;;;9.90;5.10;;;12.50;99.90;;;;;;4979431;28;20030;-69
2022/10/08 08:13:51;;;;;;;8.55;4.57;;;12.40;99.90;;;;;;4989521;28;20030;-69
2022/10/08 08:16:24;;;;;;;12.30;4.82;;;12.40;99.90;;;;;;4989317;28;20401;-68
2022/10/08 08:18:51;;;;;;;167.48;72.15;;;12.40;99.90;;;;;;4990295;28;20508;-68
2022/10/08 08:21:20;;;;;;;17.60;9.65;;;12.50;99.90;;;;;;4988062;28;20057;-69
2022/10/08 08:23:48;;;;;;;19.55;8.90;;;12.50;99.90;;;;;;4990556;28;20521;-68
2022/10/08 08:26:35;;;;;;;15.68;5.30;;;12.60;99.90;;;;;;4991221;28;20030;-70
2022/10/08 08:29:05;;;;;;;8.52;4.93;;;12.70;99.90;;;;;;4988270;28;20104;-68
2022/10/08 08:31:34;;;;;;;16.27;4.80;;;12.90;99.90;;;;;;4989419;28;20049;-70
2022/10/08 08:34:02;;;;;;;9.40;4.45;;;13.00;99.90;;;;;;4985624;28;20034;-69
2022/10/08 08:36:30;;;;;;;13.70;4.40;;;13.00;99.90;;;;;;4972682;28;20041;-68
2022/10/08 08:38:56;;;;;;;9.13;4.03;;;13.00;99.90;;;;;;4986957;28;20034;-68
2022/10/08 08:41:52;;;;;;;13.98;5.03;;;12.90;99.90;;;;;;4990297;28;20486;-69
2022/10/08 08:44:24;;;;;;;8.13;4.88;;;13.00;99.90;;;;;;4989617;28;20418;-68
2022/10/08 08:46:55;;;;;;;12.82;5.90;;;13.30;99.90;;;;;;4987593;28;20674;-68
2022/10/08 08:49:31;;;;;;;9.43;4.40;;;13.60;99.90;;;;;;4989915;28;20023;-68
2022/10/08 08:51:59;;;;;;;12.82;5.05;;;13.70;99.90;;;;;;4987623;28;20033;-68
2022/10/08 08:54:25;;;;;;;11.45;5.47;;;13.90;99.90;;;;;;4982357;28;20109;-72
2022/10/08 08:56:52;;;;;;;11.35;4.95;;;14.00;99.90;;;;;;4970029;28;20129;-68
2022/10/08 08:59:26;;;;;;;10.25;4.97;;;14.10;99.90;;;;;;4987211;28;20081;-71
2022/10/08 09:01:57;;;;;;;8.55;4.45;;;14.50;99.90;;;;;;4986723;28;20020;-68
2022/10/08 09:04:35;;;;;;;8.85;4.13;;;14.90;99.90;;;;;;4986932;28;20026;-69
2022/10/08 09:07:05;;;;;;;9.45;4.80;;;15.20;99.90;;;;;;4989957;28;20023;-68
2022/10/08 09:09:42;;;;;;;18.35;7.15;;;15.30;99.90;;;;;;4984875;28;20026;-70
2022/10/08 09:12:36;;;;;;;19.40;10.20;;;15.50;99.90;;;;;;4984912;28;20068;-69
2022/10/08 09:15:04;;;;;;;12.10;5.53;;;15.50;99.90;;;;;;5008290;28;20026;-69
2022/10/08 09:17:36;;;;;;;11.10;5.75;;;15.60;99.90;;;;;;5009360;28;20034;-70
2022/10/08 09:20:02;;;;;;;9.07;3.45;;;15.70;99.90;;;;;;4993611;28;20057;-68
2022/10/08 09:22:30;;;;;;;14.30;4.68;;;16.00;99.90;;;;;;4993876;28;20397;-69
2022/10/08 09:25:03;;;;;;;13.95;9.13;;;16.50;99.90;;;;;;4990383;28;20038;-69
2022/10/08 09:27:54;;;;;;;5.97;2.80;;;16.80;99.90;;;;;;4990883;28;20497;-70
2022/10/08 09:30:23;;;;;;;15.63;5.95;;;16.80;99.90;;;;;;5003436;28;20088;-70
2022/10/08 09:32:49;;;;;;;7.18;3.45;;;16.80;99.90;;;;;;5002412;28;20061;-71
2022/10/08 09:35:15;;;;;;;7.47;3.20;;;16.70;99.90;;;;;;5006660;28;20029;-69
2022/10/08 09:37:45;;;;;;;10.98;2.55;;;16.80;99.90;;;;;;5010144;28;20026;-70
2022/10/08 09:40:10;;;;;;;9.20;3.15;;;17.30;99.90;;;;;;5003709;28;20108;-68
2022/10/08 09:42:36;;;;;;;6.40;2.60;;;17.20;99.90;;;;;;4992045;28;20137;-68
2022/10/08 09:45:04;;;;;;;8.32;2.50;;;16.90;99.90;;;;;;5003326;28;20030;-69
2022/10/08 09:47:29;;;;;;;7.18;2.42;;;16.60;99.90;;;;;;5008768;28;20407;-69
2022/10/08 09:50:17;;;;;;;5.18;2.33;;;16.40;99.90;;;;;;5005711;28;20022;-70
2022/10/08 09:52:43;;;;;;;9.75;2.08;;;16.20;99.90;;;;;;5007010;28;20113;-68
2022/10/08 09:55:18;;;;;;;9.95;2.40;;;16.50;99.90;;;;;;5007043;28;20038;-69
2022/10/08 09:57:51;;;;;;;5.60;2.22;;;17.10;99.90;;;;;;5004002;28;20072;-71
2022/10/08 10:00:23;;;;;;;6.25;2.05;;;17.20;99.90;;;;;;4997889;28;20030;-70
2022/10/08 10:02:52;;;;;;;5.38;2.00;;;17.30;99.90;;;;;;5007191;28;20401;-69
2022/10/08 10:05:26;;;;;;;8.23;2.17;;;17.30;99.90;;;;;;5003917;28;20560;-69
2022/10/08 10:07:53;;;;;;;7.10;2.13;;;17.20;99.90;;;;;;5012129;28;20547;-69
2022/10/08 10:10:34;;;;;;;8.20;2.50;;;17.00;99.90;;;;;;5004256;28;20048;-71
2022/10/08 10:13:25;;;;;;;8.23;2.67;;;16.40;99.90;;;;;;5007422;28;20037;-69
2022/10/08 10:15:55;;;;;;;7.35;2.65;;;15.80;99.90;;;;;;5010775;28;20492;-68
2022/10/08 10:18:28;;;;;;;8.73;2.60;;;15.30;99.90;;;;;;5011073;28;20091;-70
2022/10/08 10:21:01;;;;;;;11.70;2.38;;;14.90;99.90;;;;;;5008025;28;20096;-68
2022/10/08 10:23:56;;;;;;;11.30;2.97;;;14.50;99.90;;;;;;5013163;28;20030;-69
2022/10/08 10:26:27;;;;;;;10.68;3.42;;;14.50;99.90;;;;;;5012809;28;20105;-69
2022/10/08 10:29:03;;;;;;;13.35;2.55;;;14.70;99.90;;;;;;5011540;28;20132;-68
2022/10/08 10:32:07;;;;;;;7.68;2.83;;;14.90;99.90;;;;;;5003086;28;20042;-69
2022/10/08 10:34:37;;;;;;;10.07;2.40;;;15.60;99.90;;;;;;5011750;28;20069;-69
2022/10/08 10:37:14;;;;;;;8.43;2.60;;;16.10;99.90;;;;;;5015868;28;20034;-67
2022/10/08 10:39:52;;;;;;;6.72;2.45;;;16.70;99.90;;;;;;5012243;28;20029;-71
2022/10/08 10:42:31;;;;;;;11.38;2.47;;;17.00;99.90;;;;;;5010782;28;20099;-72
2022/10/08 10:45:13;;;;;;;9.35;2.58;;;17.30;99.90;;;;;;5002383;28;20032;-70
2022/10/08 10:47:39;;;;;;;10.63;2.63;;;17.50;99.90;;;;;;4975952;28;20060;-69
2022/10/08 10:50:14;;;;;;;5.05;2.13;;;17.50;99.90;;;;;;4993590;28;20025;-68
2022/10/08 10:52:49;;;;;;;3.55;1.55;;;17.40;99.10;;;;;;5015322;28;20030;-68
2022/10/08 10:55:36;;;;;;;12.85;1.90;;;16.80;99.10;;;;;;5012794;28;20018;-69
2022/10/08 10:58:12;;;;;;;5.72;2.25;;;16.60;99.90;;;;;;4991613;28;20033;-70
2022/10/08 11:00:46;;;;;;;10.10;2.45;;;16.50;99.90;;;;;;5010756;28;20056;-69
2022/10/08 11:03:22;;;;;;;;;;;16.00;99.90;;;;;;4994875;28;20448;-68
2022/10/08 11:06:06;;;;;;;10.98;2.65;;;15.40;99.90;;;;;;5005862;28;20395;-68
2022/10/08 11:08:40;;;;;;;6.80;2.28;;;14.90;99.90;;;;;;5012509;28;20030;-69
2022/10/08 11:11:25;;;;;;;7.45;2.80;;;14.60;99.90;;;;;;5010304;28;20120;-68
2022/10/08 11:14:20;;;;;;;4.53;2.17;;;14.50;99.90;;;;;;5012489;28;20029;-69
2022/10/08 11:16:52;;;;;;;4.07;1.98;;;14.40;99.90;;;;;;5003431;28;20448;-68
2022/10/08 11:19:39;;;;;;;7.43;2.60;;;14.50;99.90;;;;;;5011736;28;20059;-68
2022/10/08 11:22:10;;;;;;;5.72;2.67;;;14.60;99.90;;;;;;5012012;28;20088;-69
2022/10/08 11:24:45;;;;;;;8.00;2.92;;;14.50;99.90;;;;;;5011252;28;20033;-68
2022/10/08 11:27:37;;;;;;;8.50;3.75;;;14.50;99.90;;;;;;5009509;28;20026;-70
2022/10/08 11:30:17;;;;;;;5.95;2.78;;;14.60;99.90;;;;;;5010200;28;20497;-68
2022/10/08 11:32:52;;;;;;;10.00;3.25;;;14.70;99.90;;;;;;5003746;28;20580;-71
2022/10/08 11:35:33;;;;;;;6.97;3.25;;;14.70;99.90;;;;;;5011234;28;20101;-69
2022/10/08 11:38:11;;;;;;;10.63;3.10;;;14.80;99.90;;;;;;5009073;28;20034;-68
2022/10/08 11:40:50;;;;;;;9.60;3.40;;;14.90;99.90;;;;;;5009151;28;20034;-69
2022/10/08 11:43:28;;;;;;;10.57;3.22;;;14.80;99.90;;;;;;5011908;28;20014;-70
2022/10/08 11:46:12;;;;;;;7.93;3.40;;;14.70;99.90;;;;;;5009706;28;20032;-70
2022/10/08 11:48:37;;;;;;;7.60;3.30;;;14.70;99.90;;;;;;5010807;28;20026;-68
2022/10/08 11:51:18;;;;;;;7.63;2.80;;;14.70;99.90;;;;;;5009383;28;20029;-69
2022/10/08 11:54:21;;;;;;;7.63;3.05;;;14.60;99.90;;;;;;5012006;28;20037;-69
2022/10/08 11:56:50;;;;;;;7.70;2.50;;;14.60;99.90;;;;;;5012028;28;20034;-69
2022/10/08 11:59:31;;;;;;;4.93;2.70;;;14.50;99.90;;;;;;5011865;28;20037;-69
2022/10/08 12:02:03;;;;;;;9.75;3.63;;;14.40;99.90;;;;;;5010667;28;20038;-70
2022/10/08 12:04:35;;;;;;;9.00;2.75;;;14.40;99.90;;;;;;5010517;28;20026;-69
2022/10/08 12:07:21;;;;;;;8.18;2.80;;;14.30;99.90;;;;;;5004955;28;20107;-68
2022/10/08 12:10:04;;;;;;;9.07;2.60;;;14.30;99.90;;;;;;5000510;28;20045;-68
2022/10/08 12:12:48;;;;;;;8.27;2.72;;;14.10;99.90;;;;;;5011967;28;20370;-69
2022/10/08 12:15:23;;;;;;;7.15;3.63;;;14.10;99.90;;;;;;5011677;28;20058;-70
2022/10/08 12:17:56;;;;;;;9.43;3.10;;;14.10;99.90;;;;;;5013513;28;20034;-69
2022/10/08 12:20:33;;;;;;;6.90;2.47;;;14.20;99.90;;;;;;4992521;28;20156;-70
2022/10/08 12:23:06;;;;;;;6.60;2.38;;;14.20;99.90;;;;;;5003298;28;20030;-69
2022/10/08 12:25:47;;;;;;;7.78;3.03;;;14.20;99.90;;;;;;5011374;28;20026;-68
2022/10/08 12:28:19;;;;;;;15.90;5.00;;;14.30;99.90;;;;;;5011571;28;20022;-68
2022/10/08 12:30:47;;;;;;;9.70;3.10;;;14.40;99.90;;;;;;4993147;28;20026;-69
2022/10/08 12:33:13;;;;;;;6.45;2.75;;;14.50;99.90;;;;;;5010572;28;20028;-71
2022/10/08 12:35:57;;;;;;;6.78;2.25;;;14.50;99.90;;;;;;5014257;28;20056;-69
2022/10/08 12:38:41;;;;;;;11.60;1.92;;;14.50;99.90;;;;;;5009697;28;20393;-68
2022/10/08 12:41:15;;;;;;;5.38;2.00;;;14.40;99.90;;;;;;5006562;28;20033;-69
2022/10/08 12:44:02;;;;;;;6.80;1.90;;;14.40;99.90;;;;;;4991679;28;20609;-68
2022/10/08 12:46:33;;;;;;;5.22;1.95;;;14.30;99.90;;;;;;5002978;28;20029;-71
2022/10/08 12:49:01;;;;;;;8.30;1.75;;;14.30;99.90;;;;;;4999762;28;20026;-68
2022/10/08 12:51:47;;;;;;;4.28;1.75;;;14.30;99.90;;;;;;5010512;28;20034;-69
2022/10/08 12:54:19;;;;;;;3.95;1.40;;;14.20;99.90;;;;;;5013502;28;20036;-68
2022/10/08 12:56:45;;;;;;;4.47;1.85;;;14.30;99.90;;;;;;5003917;28;20022;-68
2022/10/08 12:59:11;;;;;;;7.47;1.65;;;14.40;99.90;;;;;;5009891;28;20029;-69
2022/10/08 13:01:40;;;;;;;8.00;2.03;;;14.40;99.90;;;;;;5009065;28;20064;-69
2022/10/08 13:04:21;;;;;;;9.43;1.88;;;14.40;99.90;;;;;;5009767;28;20029;-69
2022/10/08 13:06:48;;;;;;;6.05;1.63;;;14.30;99.90;;;;;;5010751;28;20033;-68
2022/10/08 13:09:30;;;;;;;9.18;1.52;;;14.30;99.90;;;;;;5010850;28;20065;-69
2022/10/08 13:11:58;;;;;;;6.95;2.20;;;14.20;99.90;;;;;;5010809;28;20385;-68